sensor_id;sensor_type;location;lat;lon;timestamp;P1;durP1;ratioP1;P2;durP2;ratioP2
57842;SDS011;43673;51.058;3.734;2023-10-13T00:01:53;13.35;;;4.90;;
57842;SDS011;43673;51.058;3.734;2023-10-13T00:04:20;9.68;;;4.18;;
57842;SDS011;43673;51.058;3.734;2023-10-13T00:09:16;8.20;;;4.28;;
57842;SDS011;43673;51.058;3.734;2023-10-13T00:11:42;9.15;;;4.18;;
57842;SDS011;43673;51.058;3.734;2023-10-13T00:14:12;10.00;;;4.10;;
57842;SDS011;43673;51.058;3.734;2023-10-13T00:16:42;9.55;;;4.68;;
57842;SDS011;43673;51.058;3.734;2023-10-13T00:19:26;11.27;;;4.20;;
57842;SDS011;43673;51.058;3.734;2023-10-13T00:21:53;10.32;;;4.22;;
57842;SDS011;43673;51.058;3.734;2023-10-13T00:24:21;10.75;;;4.18;;
57842;SDS011;43673;51.058;3.734;2023-10-13T00:26:48;5.10;;;3.63;;
57842;SDS011;43673;51.058;3.734;2023-10-13T00:29:14;11.45;;;4.22;;
57842;SDS011;43673;51.058;3.734;2023-10-13T00:31:42;6.78;;;4.07;;
57842;SDS011;43673;51.058;3.734;2023-10-13T00:34:09;5.40;;;3.90;;
57842;SDS011;43673;51.058;3.734;2023-10-13T00:36:37;9.13;;;4.40;;
57842;SDS011;43673;51.058;3.734;2023-10-13T00:39:22;16.58;;;4.93;;
57842;SDS011;43673;51.058;3.734;2023-10-13T00:41:48;6.05;;;3.85;;
57842;SDS011;43673;51.058;3.734;2023-10-13T00:44:20;9.07;;;5.00;;
57842;SDS011;43673;51.058;3.734;2023-10-13T00:47:02;8.00;;;4.63;;
57842;SDS011;43673;51.058;3.734;2023-10-13T00:49:33;8.43;;;4.00;;
57842;SDS011;43673;51.058;3.734;2023-10-13T00:52:03;7.32;;;3.70;;
57842;SDS011;43673;51.058;3.734;2023-10-13T00:54:29;9.20;;;3.88;;
57842;SDS011;43673;51.058;3.734;2023-10-13T00:56:55;9.43;;;3.97;;
57842;SDS011;43673;51.058;3.734;2023-10-13T00:59:32;10.48;;;4.90;;
57842;SDS011;43673;51.058;3.734;2023-10-13T01:02:02;11.02;;;5.07;;
57842;SDS011;43673;51.058;3.734;2023-10-13T01:04:48;10.82;;;4.47;;
57842;SDS011;43673;51.058;3.734;2023-10-13T01:07:14;5.82;;;4.25;;
57842;SDS011;43673;51.058;3.734;2023-10-13T01:09:47;7.75;;;4.93;;
57842;SDS011;43673;51.058;3.734;2023-10-13T01:12:12;5.68;;;4.10;;
57842;SDS011;43673;51.058;3.734;2023-10-13T01:14:39;15.20;;;4.93;;
57842;SDS011;43673;51.058;3.734;2023-10-13T01:17:05;11.43;;;4.68;;
57842;SDS011;43673;51.058;3.734;2023-10-13T01:19:35;8.07;;;4.40;;
57842;SDS011;43673;51.058;3.734;2023-10-13T01:22:07;8.45;;;3.88;;
57842;SDS011;43673;51.058;3.734;2023-10-13T01:24:33;7.53;;;4.78;;
57842;SDS011;43673;51.058;3.734;2023-10-13T01:27:00;5.78;;;4.30;;
57842;SDS011;43673;51.058;3.734;2023-10-13T01:29:53;10.88;;;4.93;;
57842;SDS011;43673;51.058;3.734;2023-10-13T01:32:24;9.65;;;4.10;;
57842;SDS011;43673;51.058;3.734;2023-10-13T01:34:50;9.88;;;4.22;;
57842;SDS011;43673;51.058;3.734;2023-10-13T01:37:20;7.45;;;4.43;;
57842;SDS011;43673;51.058;3.734;2023-10-13T01:39:47;8.52;;;4.57;;
57842;SDS011;43673;51.058;3.734;2023-10-13T01:42:14;9.80;;;4.10;;
57842;SDS011;43673;51.058;3.734;2023-10-13T01:44:47;5.95;;;4.15;;
57842;SDS011;43673;51.058;3.734;2023-10-13T01:47:13;8.60;;;4.05;;
57842;SDS011;43673;51.058;3.734;2023-10-13T01:49:38;7.93;;;3.70;;
57842;SDS011;43673;51.058;3.734;2023-10-13T01:52:11;7.68;;;4.32;;
57842;SDS011;43673;51.058;3.734;2023-10-13T01:54:40;6.78;;;4.65;;
57842;SDS011;43673;51.058;3.734;2023-10-13T01:57:12;11.18;;;4.93;;
57842;SDS011;43673;51.058;3.734;2023-10-13T01:59:40;9.97;;;4.60;;
57842;SDS011;43673;51.058;3.734;2023-10-13T02:02:09;10.45;;;5.50;;
57842;SDS011;43673;51.058;3.734;2023-10-13T02:04:38;8.38;;;5.28;;
57842;SDS011;43673;51.058;3.734;2023-10-13T02:07:13;11.60;;;6.25;;
57842;SDS011;43673;51.058;3.734;2023-10-13T02:09:40;9.38;;;6.30;;
57842;SDS011;43673;51.058;3.734;2023-10-13T02:12:08;14.15;;;6.93;;
57842;SDS011;43673;51.058;3.734;2023-10-13T02:14:37;14.38;;;7.07;;
57842;SDS011;43673;51.058;3.734;2023-10-13T02:17:03;9.88;;;7.18;;
57842;SDS011;43673;51.058;3.734;2023-10-13T02:19:39;14.68;;;8.93;;
57842;SDS011;43673;51.058;3.734;2023-10-13T02:22:10;12.35;;;8.80;;
57842;SDS011;43673;51.058;3.734;2023-10-13T02:24:37;17.50;;;9.52;;
57842;SDS011;43673;51.058;3.734;2023-10-13T02:27:09;14.65;;;10.00;;
57842;SDS011;43673;51.058;3.734;2023-10-13T02:29:42;21.02;;;10.50;;
57842;SDS011;43673;51.058;3.734;2023-10-13T02:32:11;20.00;;;11.57;;
57842;SDS011;43673;51.058;3.734;2023-10-13T02:34:46;17.60;;;12.40;;
57842;SDS011;43673;51.058;3.734;2023-10-13T02:37:12;21.40;;;13.40;;
57842;SDS011;43673;51.058;3.734;2023-10-13T02:39:38;23.25;;;14.82;;
57842;SDS011;43673;51.058;3.734;2023-10-13T02:42:08;27.73;;;15.33;;
57842;SDS011;43673;51.058;3.734;2023-10-13T02:44:41;23.27;;;15.88;;
57842;SDS011;43673;51.058;3.734;2023-10-13T02:47:11;27.60;;;15.20;;
57842;SDS011;43673;51.058;3.734;2023-10-13T02:49:40;22.52;;;16.52;;
57842;SDS011;43673;51.058;3.734;2023-10-13T02:52:09;26.48;;;18.75;;
57842;SDS011;43673;51.058;3.734;2023-10-13T02:54:38;26.45;;;17.67;;
57842;SDS011;43673;51.058;3.734;2023-10-13T02:57:18;35.65;;;17.70;;
57842;SDS011;43673;51.058;3.734;2023-10-13T02:59:44;26.45;;;18.88;;
57842;SDS011;43673;51.058;3.734;2023-10-13T03:02:15;29.20;;;17.98;;
57842;SDS011;43673;51.058;3.734;2023-10-13T03:07:17;25.65;;;17.52;;
57842;SDS011;43673;51.058;3.734;2023-10-13T03:09:51;25.02;;;17.42;;
57842;SDS011;43673;51.058;3.734;2023-10-13T03:12:17;29.73;;;18.08;;
57842;SDS011;43673;51.058;3.734;2023-10-13T03:14:44;24.83;;;17.45;;
57842;SDS011;43673;51.058;3.734;2023-10-13T03:17:35;25.65;;;16.77;;
57842;SDS011;43673;51.058;3.734;2023-10-13T03:20:01;23.90;;;16.25;;
57842;SDS011;43673;51.058;3.734;2023-10-13T03:22:30;25.65;;;16.42;;
57842;SDS011;43673;51.058;3.734;2023-10-13T03:24:56;33.88;;;17.65;;
57842;SDS011;43673;51.058;3.734;2023-10-13T03:27:29;22.17;;;15.43;;
57842;SDS011;43673;51.058;3.734;2023-10-13T03:30:05;24.33;;;14.93;;
57842;SDS011;43673;51.058;3.734;2023-10-13T03:32:41;20.08;;;13.35;;
57842;SDS011;43673;51.058;3.734;2023-10-13T03:35:22;25.13;;;14.90;;
57842;SDS011;43673;51.058;3.734;2023-10-13T03:37:53;27.10;;;14.13;;
57842;SDS011;43673;51.058;3.734;2023-10-13T03:40:20;19.98;;;12.10;;
57842;SDS011;43673;51.058;3.734;2023-10-13T03:45:34;19.45;;;12.32;;
57842;SDS011;43673;51.058;3.734;2023-10-13T03:48:05;16.88;;;11.50;;
57842;SDS011;43673;51.058;3.734;2023-10-13T03:50:35;22.98;;;11.00;;
57842;SDS011;43673;51.058;3.734;2023-10-13T03:53:02;16.20;;;10.82;;
57842;SDS011;43673;51.058;3.734;2023-10-13T03:55:31;20.75;;;11.25;;
57842;SDS011;43673;51.058;3.734;2023-10-13T03:58:00;17.25;;;10.13;;
57842;SDS011;43673;51.058;3.734;2023-10-13T04:00:26;12.35;;;8.85;;
57842;SDS011;43673;51.058;3.734;2023-10-13T04:02:53;17.38;;;10.77;;
57842;SDS011;43673;51.058;3.734;2023-10-13T04:05:31;16.45;;;9.95;;
57842;SDS011;43673;51.058;3.734;2023-10-13T04:08:11;19.27;;;9.55;;
57842;SDS011;43673;51.058;3.734;2023-10-13T04:11:02;14.88;;;9.65;;
57842;SDS011;43673;51.058;3.734;2023-10-13T04:13:46;18.77;;;10.35;;
57842;SDS011;43673;51.058;3.734;2023-10-13T04:16:35;16.83;;;10.20;;
57842;SDS011;43673;51.058;3.734;2023-10-13T04:19:01;16.00;;;11.35;;
57842;SDS011;43673;51.058;3.734;2023-10-13T04:21:27;17.73;;;10.27;;
57842;SDS011;43673;51.058;3.734;2023-10-13T04:24:07;18.90;;;11.93;;
57842;SDS011;43673;51.058;3.734;2023-10-13T04:26:56;14.43;;;9.30;;
57842;SDS011;43673;51.058;3.734;2023-10-13T04:29:36;16.92;;;10.23;;
57842;SDS011;43673;51.058;3.734;2023-10-13T04:32:20;16.20;;;10.25;;
57842;SDS011;43673;51.058;3.734;2023-10-13T04:35:03;17.63;;;9.18;;
57842;SDS011;43673;51.058;3.734;2023-10-13T04:37:39;15.88;;;9.73;;
57842;SDS011;43673;51.058;3.734;2023-10-13T04:40:26;16.40;;;9.98;;
57842;SDS011;43673;51.058;3.734;2023-10-13T04:42:55;19.00;;;9.90;;
57842;SDS011;43673;51.058;3.734;2023-10-13T04:45:29;15.98;;;8.43;;
57842;SDS011;43673;51.058;3.734;2023-10-13T04:47:55;18.75;;;9.65;;
57842;SDS011;43673;51.058;3.734;2023-10-13T04:50:40;20.17;;;9.98;;
57842;SDS011;43673;51.058;3.734;2023-10-13T04:53:12;15.80;;;9.07;;
57842;SDS011;43673;51.058;3.734;2023-10-13T04:55:58;16.48;;;8.68;;
57842;SDS011;43673;51.058;3.734;2023-10-13T04:58:33;14.25;;;8.57;;
57842;SDS011;43673;51.058;3.734;2023-10-13T05:00:59;19.20;;;8.63;;
57842;SDS011;43673;51.058;3.734;2023-10-13T05:03:28;16.98;;;9.05;;
57842;SDS011;43673;51.058;3.734;2023-10-13T05:06:17;17.85;;;9.23;;
57842;SDS011;43673;51.058;3.734;2023-10-13T05:09:02;17.00;;;9.55;;
57842;SDS011;43673;51.058;3.734;2023-10-13T05:11:47;18.33;;;9.88;;
57842;SDS011;43673;51.058;3.734;2023-10-13T05:14:31;20.75;;;10.20;;
57842;SDS011;43673;51.058;3.734;2023-10-13T05:17:15;21.05;;;10.05;;
57842;SDS011;43673;51.058;3.734;2023-10-13T05:19:59;19.50;;;10.20;;
57842;SDS011;43673;51.058;3.734;2023-10-13T05:22:43;28.75;;;10.80;;
57842;SDS011;43673;51.058;3.734;2023-10-13T05:25:27;23.48;;;10.77;;
57842;SDS011;43673;51.058;3.734;2023-10-13T05:28:11;28.23;;;12.02;;
57842;SDS011;43673;51.058;3.734;2023-10-13T05:30:58;28.48;;;11.95;;
57842;SDS011;43673;51.058;3.734;2023-10-13T05:33:43;23.20;;;11.45;;
57842;SDS011;43673;51.058;3.734;2023-10-13T05:36:27;20.70;;;11.50;;
57842;SDS011;43673;51.058;3.734;2023-10-13T05:39:11;23.20;;;11.20;;
57842;SDS011;43673;51.058;3.734;2023-10-13T05:41:55;24.23;;;10.13;;
57842;SDS011;43673;51.058;3.734;2023-10-13T05:44:40;24.42;;;10.90;;
57842;SDS011;43673;51.058;3.734;2023-10-13T05:47:26;18.55;;;10.93;;
57842;SDS011;43673;51.058;3.734;2023-10-13T05:50:11;20.67;;;10.45;;
57842;SDS011;43673;51.058;3.734;2023-10-13T05:52:46;31.42;;;11.27;;
57842;SDS011;43673;51.058;3.734;2023-10-13T05:55:22;20.88;;;10.18;;
57842;SDS011;43673;51.058;3.734;2023-10-13T05:58:09;19.15;;;9.43;;
57842;SDS011;43673;51.058;3.734;2023-10-13T06:00:53;21.23;;;10.50;;
57842;SDS011;43673;51.058;3.734;2023-10-13T06:03:38;23.73;;;9.75;;
57842;SDS011;43673;51.058;3.734;2023-10-13T06:06:22;22.65;;;8.75;;
57842;SDS011;43673;51.058;3.734;2023-10-13T06:09:06;18.30;;;9.70;;
57842;SDS011;43673;51.058;3.734;2023-10-13T06:11:50;23.80;;;9.95;;
57842;SDS011;43673;51.058;3.734;2023-10-13T06:14:34;26.42;;;9.20;;
57842;SDS011;43673;51.058;3.734;2023-10-13T06:17:18;18.73;;;8.88;;
57842;SDS011;43673;51.058;3.734;2023-10-13T06:20:02;16.80;;;7.78;;
57842;SDS011;43673;51.058;3.734;2023-10-13T06:22:47;16.13;;;7.57;;
57842;SDS011;43673;51.058;3.734;2023-10-13T06:25:32;16.38;;;7.47;;
57842;SDS011;43673;51.058;3.734;2023-10-13T06:28:16;20.23;;;7.97;;
57842;SDS011;43673;51.058;3.734;2023-10-13T06:31:01;17.08;;;8.80;;
57842;SDS011;43673;51.058;3.734;2023-10-13T06:33:31;17.45;;;7.63;;
57842;SDS011;43673;51.058;3.734;2023-10-13T06:36:02;18.67;;;8.90;;
57842;SDS011;43673;51.058;3.734;2023-10-13T06:38:29;16.23;;;8.10;;
57842;SDS011;43673;51.058;3.734;2023-10-13T06:41:06;18.13;;;8.40;;
57842;SDS011;43673;51.058;3.734;2023-10-13T06:43:36;13.38;;;7.30;;
57842;SDS011;43673;51.058;3.734;2023-10-13T06:46:09;20.42;;;8.18;;
57842;SDS011;43673;51.058;3.734;2023-10-13T06:48:41;19.02;;;8.00;;
57842;SDS011;43673;51.058;3.734;2023-10-13T06:51:07;17.05;;;7.90;;
57842;SDS011;43673;51.058;3.734;2023-10-13T06:53:43;17.48;;;7.97;;
57842;SDS011;43673;51.058;3.734;2023-10-13T06:56:12;21.10;;;8.05;;
57842;SDS011;43673;51.058;3.734;2023-10-13T06:58:47;22.30;;;7.68;;
57842;SDS011;43673;51.058;3.734;2023-10-13T07:01:13;19.88;;;7.65;;
57842;SDS011;43673;51.058;3.734;2023-10-13T07:03:47;13.13;;;7.13;;
57842;SDS011;43673;51.058;3.734;2023-10-13T07:06:19;15.90;;;8.15;;
57842;SDS011;43673;51.058;3.734;2023-10-13T07:08:46;23.77;;;8.48;;
57842;SDS011;43673;51.058;3.734;2023-10-13T07:11:17;13.38;;;7.40;;
57842;SDS011;43673;51.058;3.734;2023-10-13T07:13:58;19.48;;;9.20;;
57842;SDS011;43673;51.058;3.734;2023-10-13T07:16:55;16.60;;;7.72;;
57842;SDS011;43673;51.058;3.734;2023-10-13T07:19:25;23.40;;;8.48;;
57842;SDS011;43673;51.058;3.734;2023-10-13T07:22:02;22.85;;;8.27;;
57842;SDS011;43673;51.058;3.734;2023-10-13T07:24:47;20.10;;;7.85;;
57842;SDS011;43673;51.058;3.734;2023-10-13T07:27:18;20.70;;;7.72;;
57842;SDS011;43673;51.058;3.734;2023-10-13T07:29:50;17.10;;;8.13;;
57842;SDS011;43673;51.058;3.734;2023-10-13T07:32:42;15.30;;;7.13;;
57842;SDS011;43673;51.058;3.734;2023-10-13T07:35:14;23.88;;;7.93;;
57842;SDS011;43673;51.058;3.734;2023-10-13T07:37:42;18.48;;;7.65;;
57842;SDS011;43673;51.058;3.734;2023-10-13T07:40:10;18.58;;;7.65;;
57842;SDS011;43673;51.058;3.734;2023-10-13T07:42:51;14.05;;;7.28;;
57842;SDS011;43673;51.058;3.734;2023-10-13T07:45:17;16.58;;;7.80;;
57842;SDS011;43673;51.058;3.734;2023-10-13T07:47:47;15.90;;;7.17;;
57842;SDS011;43673;51.058;3.734;2023-10-13T07:50:15;17.70;;;7.95;;
57842;SDS011;43673;51.058;3.734;2023-10-13T07:52:49;18.75;;;7.70;;
57842;SDS011;43673;51.058;3.734;2023-10-13T07:55:30;16.80;;;7.20;;
57842;SDS011;43673;51.058;3.734;2023-10-13T07:57:58;18.02;;;7.57;;
57842;SDS011;43673;51.058;3.734;2023-10-13T08:00:24;22.17;;;6.88;;
57842;SDS011;43673;51.058;3.734;2023-10-13T08:03:03;22.58;;;7.68;;
57842;SDS011;43673;51.058;3.734;2023-10-13T08:05:35;11.80;;;6.72;;
57842;SDS011;43673;51.058;3.734;2023-10-13T08:08:33;16.90;;;7.95;;
57842;SDS011;43673;51.058;3.734;2023-10-13T08:37:05;18.40;;;8.63;;
57842;SDS011;43673;51.058;3.734;2023-10-13T08:39:58;17.92;;;8.57;;
57842;SDS011;43673;51.058;3.734;2023-10-13T08:47:54;25.85;;;7.88;;
57842;SDS011;43673;51.058;3.734;2023-10-13T08:50:42;18.08;;;7.22;;
57842;SDS011;43673;51.058;3.734;2023-10-13T08:56:01;16.95;;;7.97;;
57842;SDS011;43673;51.058;3.734;2023-10-13T08:58:40;21.20;;;8.57;;
57842;SDS011;43673;51.058;3.734;2023-10-13T09:01:34;16.67;;;7.80;;
57842;SDS011;43673;51.058;3.734;2023-10-13T09:04:04;19.15;;;7.88;;
57842;SDS011;43673;51.058;3.734;2023-10-13T09:06:47;26.08;;;9.15;;
57842;SDS011;43673;51.058;3.734;2023-10-13T09:09:34;20.42;;;8.25;;
57842;SDS011;43673;51.058;3.734;2023-10-13T09:14:50;22.02;;;8.98;;
57842;SDS011;43673;51.058;3.734;2023-10-13T09:17:23;22.58;;;8.88;;
57842;SDS011;43673;51.058;3.734;2023-10-13T09:20:02;17.55;;;7.47;;
57842;SDS011;43673;51.058;3.734;2023-10-13T09:22:53;17.17;;;8.05;;
57842;SDS011;43673;51.058;3.734;2023-10-13T09:25:26;15.90;;;8.85;;
57842;SDS011;43673;51.058;3.734;2023-10-13T09:28:02;26.38;;;8.07;;
57842;SDS011;43673;51.058;3.734;2023-10-13T09:30:43;16.23;;;8.05;;
57842;SDS011;43673;51.058;3.734;2023-10-13T09:33:10;16.52;;;8.43;;
57842;SDS011;43673;51.058;3.734;2023-10-13T09:35:41;18.02;;;7.65;;
57842;SDS011;43673;51.058;3.734;2023-10-13T09:38:14;14.07;;;8.00;;
57842;SDS011;43673;51.058;3.734;2023-10-13T09:40:40;16.83;;;8.93;;
57842;SDS011;43673;51.058;3.734;2023-10-13T09:43:15;18.52;;;8.23;;
57842;SDS011;43673;51.058;3.734;2023-10-13T09:45:47;17.48;;;7.47;;
57842;SDS011;43673;51.058;3.734;2023-10-13T09:48:42;19.17;;;8.10;;
57842;SDS011;43673;51.058;3.734;2023-10-13T09:51:12;20.42;;;8.43;;
57842;SDS011;43673;51.058;3.734;2023-10-13T09:53:39;18.50;;;7.45;;
57842;SDS011;43673;51.058;3.734;2023-10-13T09:58:42;20.90;;;8.98;;
57842;SDS011;43673;51.058;3.734;2023-10-13T10:01:17;19.55;;;9.27;;
57842;SDS011;43673;51.058;3.734;2023-10-13T10:04:05;13.45;;;7.43;;
57842;SDS011;43673;51.058;3.734;2023-10-13T10:06:34;25.33;;;9.13;;
57842;SDS011;43673;51.058;3.734;2023-10-13T10:09:12;23.20;;;8.73;;
57842;SDS011;43673;51.058;3.734;2023-10-13T10:11:48;17.63;;;7.97;;
57842;SDS011;43673;51.058;3.734;2023-10-13T10:17:21;18.27;;;8.25;;
57842;SDS011;43673;51.058;3.734;2023-10-13T10:19:51;20.15;;;8.80;;
57842;SDS011;43673;51.058;3.734;2023-10-13T10:22:31;16.42;;;7.63;;
57842;SDS011;43673;51.058;3.734;2023-10-13T10:25:03;24.42;;;8.32;;
57842;SDS011;43673;51.058;3.734;2023-10-13T10:27:58;21.80;;;8.27;;
57842;SDS011;43673;51.058;3.734;2023-10-13T10:30:29;19.40;;;8.57;;
57842;SDS011;43673;51.058;3.734;2023-10-13T10:32:58;16.20;;;7.97;;
57842;SDS011;43673;51.058;3.734;2023-10-13T10:35:24;14.75;;;8.00;;
57842;SDS011;43673;51.058;3.734;2023-10-13T10:38:16;19.83;;;8.80;;
57842;SDS011;43673;51.058;3.734;2023-10-13T10:40:50;23.38;;;9.88;;
57842;SDS011;43673;51.058;3.734;2023-10-13T10:46:09;23.25;;;9.38;;
57842;SDS011;43673;51.058;3.734;2023-10-13T10:48:42;22.83;;;8.98;;
57842;SDS011;43673;51.058;3.734;2023-10-13T10:51:12;24.88;;;8.93;;
57842;SDS011;43673;51.058;3.734;2023-10-13T10:53:40;20.58;;;8.57;;
57842;SDS011;43673;51.058;3.734;2023-10-13T10:56:09;21.87;;;8.97;;
57842;SDS011;43673;51.058;3.734;2023-10-13T10:58:46;26.85;;;8.27;;
57842;SDS011;43673;51.058;3.734;2023-10-13T11:01:12;14.13;;;8.07;;
57842;SDS011;43673;51.058;3.734;2023-10-13T11:04:01;20.10;;;8.38;;
57842;SDS011;43673;51.058;3.734;2023-10-13T11:06:44;22.17;;;9.55;;
57842;SDS011;43673;51.058;3.734;2023-10-13T11:09:30;24.70;;;8.15;;
57842;SDS011;43673;51.058;3.734;2023-10-13T11:12:07;20.45;;;9.32;;
57842;SDS011;43673;51.058;3.734;2023-10-13T11:14:49;23.15;;;9.27;;
57842;SDS011;43673;51.058;3.734;2023-10-13T11:17:37;16.00;;;9.15;;
57842;SDS011;43673;51.058;3.734;2023-10-13T11:20:14;27.53;;;10.20;;
57842;SDS011;43673;51.058;3.734;2023-10-13T11:22:46;22.75;;;10.30;;
57842;SDS011;43673;51.058;3.734;2023-10-13T11:25:20;24.98;;;9.23;;
57842;SDS011;43673;51.058;3.734;2023-10-13T11:28:09;25.73;;;9.65;;
57842;SDS011;43673;51.058;3.734;2023-10-13T11:30:43;21.27;;;9.43;;
57842;SDS011;43673;51.058;3.734;2023-10-13T11:33:21;21.45;;;9.02;;
57842;SDS011;43673;51.058;3.734;2023-10-13T11:35:51;19.88;;;9.32;;
57842;SDS011;43673;51.058;3.734;2023-10-13T11:38:17;19.83;;;8.43;;
57842;SDS011;43673;51.058;3.734;2023-10-13T11:41:00;16.98;;;8.73;;
57842;SDS011;43673;51.058;3.734;2023-10-13T11:46:21;19.80;;;7.68;;
57842;SDS011;43673;51.058;3.734;2023-10-13T11:49:17;21.55;;;9.38;;
57842;SDS011;43673;51.058;3.734;2023-10-13T11:51:52;25.30;;;8.23;;
57842;SDS011;43673;51.058;3.734;2023-10-13T11:54:26;22.00;;;10.02;;
57842;SDS011;43673;51.058;3.734;2023-10-13T11:56:53;19.98;;;9.00;;
57842;SDS011;43673;51.058;3.734;2023-10-13T11:59:23;20.10;;;9.68;;
57842;SDS011;43673;51.058;3.734;2023-10-13T12:01:53;20.67;;;8.40;;
57842;SDS011;43673;51.058;3.734;2023-10-13T12:04:45;16.17;;;8.20;;
57842;SDS011;43673;51.058;3.734;2023-10-13T12:07:17;17.65;;;8.18;;
57842;SDS011;43673;51.058;3.734;2023-10-13T12:10:05;23.42;;;8.27;;
57842;SDS011;43673;51.058;3.734;2023-10-13T12:12:40;18.45;;;8.05;;
57842;SDS011;43673;51.058;3.734;2023-10-13T12:15:08;16.98;;;7.55;;
57842;SDS011;43673;51.058;3.734;2023-10-13T12:17:35;22.30;;;8.52;;
57842;SDS011;43673;51.058;3.734;2023-10-13T12:20:02;17.50;;;8.05;;
57842;SDS011;43673;51.058;3.734;2023-10-13T12:22:39;16.40;;;7.80;;
57842;SDS011;43673;51.058;3.734;2023-10-13T12:25:07;20.85;;;8.27;;
57842;SDS011;43673;51.058;3.734;2023-10-13T12:27:52;20.10;;;8.07;;
57842;SDS011;43673;51.058;3.734;2023-10-13T12:30:23;18.77;;;8.25;;
57842;SDS011;43673;51.058;3.734;2023-10-13T12:33:13;20.67;;;8.38;;
57842;SDS011;43673;51.058;3.734;2023-10-13T12:35:41;17.45;;;7.63;;
57842;SDS011;43673;51.058;3.734;2023-10-13T12:38:28;14.48;;;7.53;;
57842;SDS011;43673;51.058;3.734;2023-10-13T12:41:12;19.38;;;8.48;;
57842;SDS011;43673;51.058;3.734;2023-10-13T12:43:59;26.27;;;8.63;;
57842;SDS011;43673;51.058;3.734;2023-10-13T12:46:44;25.42;;;9.95;;
57842;SDS011;43673;51.058;3.734;2023-10-13T12:49:28;13.23;;;7.82;;
57842;SDS011;43673;51.058;3.734;2023-10-13T12:52:12;18.83;;;8.15;;
57842;SDS011;43673;51.058;3.734;2023-10-13T12:54:56;20.83;;;9.15;;
57842;SDS011;43673;51.058;3.734;2023-10-13T12:57:23;16.80;;;7.68;;
57842;SDS011;43673;51.058;3.734;2023-10-13T12:59:49;17.38;;;8.15;;
57842;SDS011;43673;51.058;3.734;2023-10-13T13:02:19;14.50;;;7.97;;
57842;SDS011;43673;51.058;3.734;2023-10-13T13:04:50;18.05;;;8.45;;
57842;SDS011;43673;51.058;3.734;2023-10-13T13:07:19;21.38;;;8.45;;
57842;SDS011;43673;51.058;3.734;2023-10-13T13:09:45;21.77;;;7.63;;
57842;SDS011;43673;51.058;3.734;2023-10-13T13:12:11;17.88;;;7.75;;
57842;SDS011;43673;51.058;3.734;2023-10-13T13:14:39;17.58;;;7.45;;
57842;SDS011;43673;51.058;3.734;2023-10-13T13:17:11;17.38;;;7.88;;
57842;SDS011;43673;51.058;3.734;2023-10-13T13:19:38;15.45;;;7.57;;
57842;SDS011;43673;51.058;3.734;2023-10-13T13:22:07;13.95;;;7.75;;
57842;SDS011;43673;51.058;3.734;2023-10-13T13:24:37;21.02;;;7.65;;
57842;SDS011;43673;51.058;3.734;2023-10-13T13:27:08;22.88;;;8.00;;
57842;SDS011;43673;51.058;3.734;2023-10-13T13:29:39;22.65;;;7.70;;
57842;SDS011;43673;51.058;3.734;2023-10-13T13:32:05;20.15;;;8.45;;
57842;SDS011;43673;51.058;3.734;2023-10-13T13:34:42;22.90;;;7.10;;
57842;SDS011;43673;51.058;3.734;2023-10-13T13:37:08;20.13;;;8.00;;
57842;SDS011;43673;51.058;3.734;2023-10-13T13:39:37;15.65;;;7.78;;
57842;SDS011;43673;51.058;3.734;2023-10-13T13:42:08;16.48;;;8.15;;
57842;SDS011;43673;51.058;3.734;2023-10-13T13:44:34;17.23;;;8.07;;
57842;SDS011;43673;51.058;3.734;2023-10-13T13:47:03;14.48;;;8.18;;
57842;SDS011;43673;51.058;3.734;2023-10-13T13:49:37;22.92;;;8.32;;
57842;SDS011;43673;51.058;3.734;2023-10-13T13:52:11;18.08;;;8.73;;
57842;SDS011;43673;51.058;3.734;2023-10-13T13:54:43;17.88;;;7.28;;
57842;SDS011;43673;51.058;3.734;2023-10-13T13:57:09;20.42;;;7.60;;
57842;SDS011;43673;51.058;3.734;2023-10-13T13:59:35;17.83;;;8.00;;
57842;SDS011;43673;51.058;3.734;2023-10-13T14:02:02;15.82;;;8.02;;
57842;SDS011;43673;51.058;3.734;2023-10-13T14:04:59;21.85;;;7.57;;
57842;SDS011;43673;51.058;3.734;2023-10-13T14:07:27;16.10;;;8.73;;
57842;SDS011;43673;51.058;3.734;2023-10-13T14:09:57;16.75;;;8.40;;
57842;SDS011;43673;51.058;3.734;2023-10-13T14:12:31;15.95;;;8.07;;
57842;SDS011;43673;51.058;3.734;2023-10-13T14:15:23;12.30;;;7.38;;
57842;SDS011;43673;51.058;3.734;2023-10-13T14:17:49;18.25;;;7.40;;
57842;SDS011;43673;51.058;3.734;2023-10-13T14:20:15;21.63;;;7.80;;
57842;SDS011;43673;51.058;3.734;2023-10-13T14:22:44;20.42;;;8.60;;
57842;SDS011;43673;51.058;3.734;2023-10-13T14:25:13;15.63;;;7.13;;
57842;SDS011;43673;51.058;3.734;2023-10-13T14:27:40;15.23;;;7.65;;
57842;SDS011;43673;51.058;3.734;2023-10-13T14:30:07;20.80;;;9.27;;
57842;SDS011;43673;51.058;3.734;2023-10-13T14:32:33;13.35;;;7.13;;
57842;SDS011;43673;51.058;3.734;2023-10-13T14:37:41;16.17;;;7.03;;
57842;SDS011;43673;51.058;3.734;2023-10-13T14:40:08;19.98;;;8.80;;
57842;SDS011;43673;51.058;3.734;2023-10-13T14:42:40;19.23;;;8.35;;
57842;SDS011;43673;51.058;3.734;2023-10-13T14:45:06;18.48;;;8.00;;
57842;SDS011;43673;51.058;3.734;2023-10-13T14:47:39;15.07;;;7.20;;
57842;SDS011;43673;51.058;3.734;2023-10-13T14:50:05;20.73;;;7.28;;
57842;SDS011;43673;51.058;3.734;2023-10-13T14:52:32;18.08;;;7.50;;
57842;SDS011;43673;51.058;3.734;2023-10-13T14:54:58;14.55;;;7.43;;
57842;SDS011;43673;51.058;3.734;2023-10-13T14:57:26;20.02;;;7.65;;
57842;SDS011;43673;51.058;3.734;2023-10-13T14:59:53;13.73;;;7.85;;
57842;SDS011;43673;51.058;3.734;2023-10-13T15:02:19;18.40;;;7.22;;
57842;SDS011;43673;51.058;3.734;2023-10-13T15:04:49;13.82;;;7.00;;
57842;SDS011;43673;51.058;3.734;2023-10-13T15:07:15;21.70;;;6.93;;
57842;SDS011;43673;51.058;3.734;2023-10-13T15:09:42;14.15;;;7.40;;
57842;SDS011;43673;51.058;3.734;2023-10-13T15:12:09;19.95;;;7.57;;
57842;SDS011;43673;51.058;3.734;2023-10-13T15:14:38;19.80;;;7.17;;
57842;SDS011;43673;51.058;3.734;2023-10-13T15:17:07;15.13;;;6.75;;
57842;SDS011;43673;51.058;3.734;2023-10-13T15:19:34;16.40;;;7.20;;
57842;SDS011;43673;51.058;3.734;2023-10-13T15:22:08;14.32;;;7.32;;
57842;SDS011;43673;51.058;3.734;2023-10-13T15:24:41;18.52;;;6.70;;
57842;SDS011;43673;51.058;3.734;2023-10-13T15:27:22;13.70;;;6.60;;
57842;SDS011;43673;51.058;3.734;2023-10-13T15:29:48;18.42;;;7.63;;
57842;SDS011;43673;51.058;3.734;2023-10-13T15:32:16;12.80;;;6.20;;
57842;SDS011;43673;51.058;3.734;2023-10-13T15:35:00;21.25;;;7.80;;
57842;SDS011;43673;51.058;3.734;2023-10-13T15:37:26;11.18;;;6.38;;
57842;SDS011;43673;51.058;3.734;2023-10-13T15:39:52;13.02;;;6.47;;
57842;SDS011;43673;51.058;3.734;2023-10-13T15:42:18;18.38;;;7.55;;
57842;SDS011;43673;51.058;3.734;2023-10-13T15:44:46;22.10;;;6.78;;
57842;SDS011;43673;51.058;3.734;2023-10-13T15:47:13;16.67;;;7.53;;
57842;SDS011;43673;51.058;3.734;2023-10-13T15:49:39;25.50;;;7.88;;
57842;SDS011;43673;51.058;3.734;2023-10-13T15:52:07;16.25;;;5.93;;
57842;SDS011;43673;51.058;3.734;2023-10-13T15:54:35;13.45;;;6.55;;
57842;SDS011;43673;51.058;3.734;2023-10-13T15:57:01;19.33;;;7.35;;
57842;SDS011;43673;51.058;3.734;2023-10-13T15:59:31;14.45;;;7.50;;
57842;SDS011;43673;51.058;3.734;2023-10-13T16:01:59;16.33;;;7.03;;
57842;SDS011;43673;51.058;3.734;2023-10-13T16:04:25;20.27;;;7.88;;
57842;SDS011;43673;51.058;3.734;2023-10-13T16:06:51;18.38;;;7.72;;
57842;SDS011;43673;51.058;3.734;2023-10-13T16:09:17;15.25;;;6.97;;
57842;SDS011;43673;51.058;3.734;2023-10-13T16:11:54;19.35;;;7.85;;